UAL1658 KEWR-KSAV
Flight info
| Callsign | UAL1658 |
|---|---|
| Flight time | N/A |
| Altitude | 36000 |
| Route | ELVAE NECCK WHITE Q409 SESUE SOOOP |
| Aircraft | B38M/M-SDE1FGHILORVWXY/HB1 |
Departure
| Time | 2026-04-24 16:31 |
|---|---|
| Airport | Newark Liberty International Airport (KEWR) |
Arrival
| Time | N/A |
|---|---|
| Airport | Savannah Hilton Head International Airport (KSAV) |
| Time | Latitude | Longitude | Altitude | Speed | Heading |
|---|---|---|---|---|---|
| 2026-04-24 16:30 | 40.76297 | -74.09424 | 5540 ft | 232 kts | 32° |
| 2026-04-24 16:31 | 40.77726 | -74.08511 | 6454 ft | 228 kts | 2° |
| 2026-04-24 16:31 | 40.79269 | -74.08676 | 7419 ft | 222 kts | 340° |
| 2026-04-24 16:31 | 40.80702 | -74.09449 | 8463 ft | 222 kts | 329° |
| 2026-04-24 16:31 | 40.81899 | -74.10680 | 9640 ft | 217 kts | 313° |
| 2026-04-24 16:32 | 40.82718 | -74.12347 | 10613 ft | 221 kts | 298° |
| 2026-04-24 16:32 | 40.83117 | -74.14410 | 11162 ft | 248 kts | 279° |
| 2026-04-24 16:32 | 40.82799 | -74.16767 | 11592 ft | 285 kts | 255° |
| 2026-04-24 16:32 | 40.81549 | -74.18987 | 12144 ft | 322 kts | 229° |
| 2026-04-24 16:33 | 40.79475 | -74.20401 | 12832 ft | 354 kts | 201° |
| 2026-04-24 16:33 | 40.77013 | -74.20999 | 13697 ft | 359 kts | 199° |
| 2026-04-24 16:33 | 40.74548 | -74.21687 | 14444 ft | 363 kts | 200° |
| 2026-04-24 16:33 | 40.72071 | -74.22408 | 15210 ft | 365 kts | 200° |
| 2026-04-24 16:34 | 40.69583 | -74.23147 | 15979 ft | 368 kts | 200° |
| 2026-04-24 16:34 | 40.67070 | -74.23901 | 16715 ft | 372 kts | 201° |
| 2026-04-24 16:34 | 40.64529 | -74.24665 | 17428 ft | 376 kts | 201° |
| 2026-04-24 16:34 | 40.61991 | -74.25428 | 18140 ft | 379 kts | 201° |
| 2026-04-24 16:35 | 40.59384 | -74.26093 | 18733 ft | 386 kts | 196° |
| 2026-04-24 16:35 | 40.56839 | -74.27023 | 19276 ft | 374 kts | 215° |
| 2026-04-24 16:35 | 40.54812 | -74.29010 | 19712 ft | 357 kts | 239° |
| 2026-04-24 16:35 | 40.53710 | -74.31811 | 20185 ft | 341 kts | 262° |
| 2026-04-24 16:36 | 40.53135 | -74.34849 | 20641 ft | 347 kts | 262° |
| 2026-04-24 16:36 | 40.52490 | -74.37912 | 21222 ft | 349 kts | 262° |
| 2026-04-24 16:36 | 40.51838 | -74.41019 | 21759 ft | 353 kts | 262° |
| 2026-04-24 16:36 | 40.51181 | -74.44148 | 22303 ft | 357 kts | 262° |
| 2026-04-24 16:37 | 40.50515 | -74.47317 | 22803 ft | 361 kts | 262° |
| 2026-04-24 16:37 | 40.49850 | -74.50474 | 23330 ft | 364 kts | 262° |
| 2026-04-24 16:37 | 40.49169 | -74.53708 | 23790 ft | 368 kts | 262° |
| 2026-04-24 16:37 | 40.48482 | -74.56963 | 24212 ft | 371 kts | 262° |
| 2026-04-24 16:38 | 40.47789 | -74.60238 | 24648 ft | 374 kts | 262° |
| 2026-04-24 16:38 | 40.47088 | -74.63550 | 25071 ft | 377 kts | 262° |
| 2026-04-24 16:38 | 40.46381 | -74.66885 | 25479 ft | 381 kts | 262° |
| 2026-04-24 16:38 | 40.45666 | -74.70249 | 25879 ft | 384 kts | 262° |
| 2026-04-24 16:39 | 40.44954 | -74.73594 | 26259 ft | 387 kts | 262° |
| 2026-04-24 16:39 | 40.44225 | -74.77015 | 26655 ft | 390 kts | 262° |
| 2026-04-24 16:39 | 40.43490 | -74.80459 | 27052 ft | 393 kts | 262° |
| 2026-04-24 16:39 | 40.42748 | -74.83929 | 27440 ft | 396 kts | 262° |
| 2026-04-24 16:40 | 40.41997 | -74.87439 | 27824 ft | 399 kts | 262° |
| 2026-04-24 16:40 | 40.41241 | -74.90960 | 28187 ft | 403 kts | 262° |
| 2026-04-24 16:40 | 40.40479 | -74.94510 | 28563 ft | 406 kts | 263° |
| 2026-04-24 16:40 | 40.39709 | -74.98086 | 28921 ft | 409 kts | 263° |
| 2026-04-24 16:41 | 40.38933 | -75.01689 | 29278 ft | 412 kts | 263° |
| 2026-04-24 16:41 | 40.38148 | -75.05321 | 29623 ft | 415 kts | 263° |
| 2026-04-24 16:41 | 40.37370 | -75.08923 | 29956 ft | 418 kts | 263° |
| 2026-04-24 16:41 | 40.36572 | -75.12604 | 30257 ft | 420 kts | 263° |
| 2026-04-24 16:42 | 40.35770 | -75.16298 | 30556 ft | 423 kts | 263° |
| 2026-04-24 16:42 | 40.34962 | -75.20014 | 30837 ft | 425 kts | 263° |
| 2026-04-24 16:42 | 40.34149 | -75.23749 | 31157 ft | 427 kts | 262° |
| 2026-04-24 16:42 | 40.33330 | -75.27505 | 31446 ft | 429 kts | 262° |
| 2026-04-24 16:43 | 40.32507 | -75.31270 | 31725 ft | 431 kts | 262° |
| 2026-04-24 16:43 | 40.31680 | -75.35045 | 32039 ft | 433 kts | 262° |
| 2026-04-24 16:43 | 40.30848 | -75.38844 | 32335 ft | 435 kts | 262° |
| 2026-04-24 16:43 | 40.30011 | -75.42654 | 32701 ft | 434 kts | 262° |
| 2026-04-24 16:44 | 40.29174 | -75.46454 | 33102 ft | 433 kts | 262° |
| 2026-04-24 16:44 | 40.28339 | -75.50243 | 33513 ft | 432 kts | 262° |
| 2026-04-24 16:44 | 40.27504 | -75.54025 | 33918 ft | 431 kts | 262° |
| 2026-04-24 16:44 | 40.26672 | -75.57785 | 34271 ft | 430 kts | 262° |
| 2026-04-24 16:45 | 40.25840 | -75.61543 | 34596 ft | 429 kts | 262° |
| 2026-04-24 16:45 | 40.25009 | -75.65286 | 34906 ft | 428 kts | 262° |
| 2026-04-24 16:45 | 40.24176 | -75.69033 | 35196 ft | 428 kts | 262° |
| 2026-04-24 16:45 | 40.23354 | -75.72728 | 35496 ft | 427 kts | 262° |
| 2026-04-24 16:46 | 40.22522 | -75.76457 | 35789 ft | 427 kts | 262° |
| 2026-04-24 16:46 | 40.21686 | -75.80196 | 35910 ft | 428 kts | 262° |
| 2026-04-24 16:46 | 40.20022 | -75.87631 | 35890 ft | 425 kts | 261° |
| 2026-04-24 16:47 | 40.18353 | -75.95052 | 35884 ft | 425 kts | 261° |
| 2026-04-24 16:47 | 40.16680 | -76.02477 | 35888 ft | 426 kts | 261° |
| 2026-04-24 16:48 | 40.14998 | -76.09907 | 35890 ft | 426 kts | 261° |
| 2026-04-24 16:48 | 40.13322 | -76.17294 | 35892 ft | 426 kts | 261° |
| 2026-04-24 16:49 | 40.11630 | -76.24721 | 35892 ft | 426 kts | 261° |
| 2026-04-24 16:49 | 40.09934 | -76.32146 | 35889 ft | 426 kts | 261° |
| 2026-04-24 16:50 | 40.08230 | -76.39576 | 35892 ft | 427 kts | 261° |
| 2026-04-24 16:50 | 40.06521 | -76.47009 | 35889 ft | 427 kts | 261° |
| 2026-04-24 16:51 | 40.04807 | -76.54437 | 35887 ft | 428 kts | 261° |
| 2026-04-24 16:51 | 40.03094 | -76.61837 | 35874 ft | 427 kts | 261° |
| 2026-04-24 16:52 | 40.01368 | -76.69266 | 35893 ft | 428 kts | 261° |
| 2026-04-24 16:52 | 39.99635 | -76.76703 | 35888 ft | 428 kts | 261° |
| 2026-04-24 16:53 | 39.97895 | -76.84146 | 35894 ft | 429 kts | 260° |
| 2026-04-24 16:53 | 39.96149 | -76.91593 | 35892 ft | 429 kts | 260° |
| 2026-04-24 16:54 | 39.94398 | -76.99037 | 35893 ft | 429 kts | 260° |
| 2026-04-24 16:54 | 39.92264 | -77.06296 | 35869 ft | 444 kts | 242° |
| 2026-04-24 16:55 | 39.90160 | -77.09305 | 35893 ft | 459 kts | 225° |
| 2026-04-24 16:55 | 39.87418 | -77.11551 | 35892 ft | 474 kts | 209° |
| 2026-04-24 16:55 | 39.84310 | -77.12898 | 35900 ft | 484 kts | 195° |
| 2026-04-24 16:55 | 39.80939 | -77.13384 | 35891 ft | 491 kts | 184° |
| 2026-04-24 16:56 | 39.74092 | -77.13612 | 35886 ft | 492 kts | 185° |
| 2026-04-24 16:56 | 39.67240 | -77.13855 | 35886 ft | 492 kts | 185° |
| 2026-04-24 16:57 | 39.60385 | -77.14093 | 35887 ft | 492 kts | 185° |
| 2026-04-24 16:57 | 39.53535 | -77.14331 | 35889 ft | 492 kts | 185° |
| 2026-04-24 16:58 | 39.46686 | -77.14568 | 35890 ft | 492 kts | 185° |
| 2026-04-24 16:58 | 39.39846 | -77.14803 | 35899 ft | 492 kts | 185° |
| 2026-04-24 16:59 | 39.33050 | -77.15038 | 35912 ft | 492 kts | 185° |
| 2026-04-24 17:00 | 39.22781 | -77.15391 | 35915 ft | 492 kts | 185° |
| 2026-04-24 17:00 | 39.12532 | -77.15742 | 35909 ft | 491 kts | 185° |
| 2026-04-24 17:01 | 39.02290 | -77.16092 | 35884 ft | 490 kts | 185° |
| 2026-04-24 17:02 | 38.92088 | -77.16439 | 35868 ft | 490 kts | 185° |
| 2026-04-24 17:02 | 38.85272 | -77.16671 | 35866 ft | 490 kts | 185° |
| 2026-04-24 17:03 | 38.75049 | -77.17018 | 35855 ft | 489 kts | 185° |
| 2026-04-24 17:04 | 38.68242 | -77.17247 | 35854 ft | 489 kts | 184° |
| 2026-04-24 17:04 | 38.58017 | -77.17593 | 35898 ft | 489 kts | 184° |
| 2026-04-24 17:05 | 38.51219 | -77.17821 | 35894 ft | 488 kts | 184° |
| 2026-04-24 17:06 | 38.41070 | -77.18162 | 35894 ft | 488 kts | 184° |
| 2026-04-24 17:06 | 38.30892 | -77.18503 | 35889 ft | 487 kts | 184° |
| 2026-04-24 17:07 | 38.25267 | -77.18691 | 35874 ft | 487 kts | 184° |
| 2026-04-24 17:08 | 38.11732 | -77.19142 | 35875 ft | 486 kts | 184° |
| 2026-04-24 17:08 | 38.04980 | -77.19366 | 35879 ft | 485 kts | 184° |
| 2026-04-24 17:09 | 37.91505 | -77.19815 | 35911 ft | 478 kts | 185° |
| 2026-04-24 17:10 | 37.78470 | -77.20243 | 35893 ft | 468 kts | 185° |
| 2026-04-24 17:12 | 37.52506 | -77.21096 | 35883 ft | 466 kts | 185° |